Time;durP1;ratioP1;P1;durP2;ratioP2;P2;SDS_P1;SDS_P2;PMS_P1;PMS_P2;Temp;Humidity;BMP_temperature;BMP_pressure;BME280_temperature;BME280_humidity;BME280_pressure;Samples;Min_cycle;Max_cycle;Signal;HPM_P1;HPM_P2
2021/11/04 00:00:28;;;;;;;14.03;9.63;;;9.10;99.90;;;;;;5069529;28;20526;-74
2021/11/04 00:02:55;;;;;;;20.77;11.17;;;9.10;99.90;;;;;;5068939;28;20507;-73
2021/11/04 00:05:20;;;;;;;20.03;10.90;;;9.10;99.90;;;;;;5069702;28;20519;-74
2021/11/04 00:07:49;;;;;;;19.10;11.83;;;9.10;99.90;;;;;;5067127;28;20465;-74
2021/11/04 00:10:15;;;;;;;13.50;9.80;;;9.10;99.90;;;;;;5067682;28;20223;-74
2021/11/04 00:12:41;;;;;;;19.57;11.67;;;9.10;99.90;;;;;;5067584;28;20469;-74
2021/11/04 00:15:08;;;;;;;16.47;11.33;;;9.10;99.90;;;;;;5068704;28;20465;-73
2021/11/04 00:17:33;;;;;;;19.63;11.50;;;9.10;99.90;;;;;;5069186;28;20311;-73
2021/11/04 00:19:59;;;;;;;14.30;9.30;;;9.10;99.90;;;;;;5069532;28;20556;-74
2021/11/04 00:22:25;;;;;;;14.10;9.70;;;9.10;99.90;;;;;;5069148;28;20218;-73
2021/11/04 00:24:51;;;;;;;13.63;9.57;;;9.10;99.90;;;;;;5049798;28;20507;-73
2021/11/04 00:27:17;;;;;;;14.40;9.80;;;9.10;99.90;;;;;;5069431;28;20223;-74
2021/11/04 00:29:43;;;;;;;17.20;10.00;;;9.10;99.90;;;;;;5068650;28;20242;-74
2021/11/04 00:32:08;;;;;;;13.27;8.87;;;9.10;99.90;;;;;;5051641;28;20211;-74
2021/11/04 00:34:34;;;;;;;12.90;8.63;;;9.10;99.90;;;;;;5066489;28;20224;-75
2021/11/04 00:37:00;;;;;;;10.80;8.37;;;9.10;99.90;;;;;;5067844;28;20226;-74
2021/11/04 00:39:25;;;;;;;14.20;9.30;;;9.10;99.90;;;;;;5068985;28;20219;-74
2021/11/04 00:41:51;;;;;;;12.77;8.80;;;9.10;99.90;;;;;;5067505;28;20215;-74
2021/11/04 00:44:17;;;;;;;13.50;9.10;;;9.10;99.90;;;;;;5068428;28;20708;-74
2021/11/04 00:46:42;;;;;;;14.10;8.50;;;9.10;99.90;;;;;;5063451;28;20573;-76
2021/11/04 00:49:08;;;;;;;14.40;8.77;;;9.00;99.90;;;;;;5067705;28;20616;-74
2021/11/04 00:51:34;;;;;;;15.27;9.60;;;9.00;99.90;;;;;;5067236;28;20215;-73
2021/11/04 00:54:00;;;;;;;11.67;7.97;;;9.00;99.90;;;;;;5069452;28;20253;-74
2021/11/04 00:56:26;;;;;;;11.40;7.90;;;9.00;99.90;;;;;;5068743;28;20492;-74
2021/11/04 00:58:51;;;;;;;13.43;8.30;;;9.00;99.90;;;;;;5066312;28;20219;-74
2021/11/04 01:01:22;;;;;;;14.53;8.87;;;9.00;99.90;;;;;;5068694;28;20207;-74
2021/11/04 01:03:49;;;;;;;13.10;7.90;;;9.00;99.90;;;;;;5066063;28;20211;-74
2021/11/04 01:06:16;;;;;;;12.60;9.30;;;9.00;99.90;;;;;;5068585;28;20461;-75
2021/11/04 01:08:41;;;;;;;116.60;53.90;;;9.00;99.90;;;;;;5067045;28;20450;-76
2021/11/04 01:11:07;;;;;;;113.63;57.10;;;9.00;99.90;;;;;;5066738;28;20458;-74
2021/11/04 01:13:35;;;;;;;42.10;24.33;;;9.00;99.90;;;;;;5083749;28;20233;-74
2021/11/04 01:16:00;;;;;;;23.77;14.10;;;9.00;99.90;;;;;;5051325;28;20590;-74
2021/11/04 01:18:27;;;;;;;21.47;11.63;;;9.00;99.90;;;;;;5067557;28;20541;-74
2021/11/04 01:20:53;;;;;;;12.23;8.40;;;9.00;99.90;;;;;;5048238;28;20317;-74
2021/11/04 01:23:19;;;;;;;12.07;8.33;;;9.00;99.90;;;;;;5067658;28;20544;-73
2021/11/04 01:25:45;;;;;;;6.10;5.10;;;8.90;99.90;;;;;;5066641;28;20231;-74
2021/11/04 01:28:11;;;;;;;5.43;4.03;;;8.90;99.90;;;;;;5067201;28;20225;-74
2021/11/04 01:30:38;;;;;;;4.20;3.20;;;8.90;99.90;;;;;;5066436;28;20544;-74
2021/11/04 01:33:04;;;;;;;3.60;3.10;;;8.90;99.90;;;;;;5066853;28;20223;-72
2021/11/04 01:35:33;;;;;;;4.13;3.30;;;8.90;99.90;;;;;;5065710;28;20515;-74
2021/11/04 01:37:59;;;;;;;5.17;2.57;;;8.90;99.90;;;;;;5067858;28;20461;-74
2021/11/04 01:40:25;;;;;;;3.37;2.90;;;8.90;99.90;;;;;;5067830;28;20473;-74
2021/11/04 01:42:51;;;;;;;2.63;2.30;;;8.90;99.90;;;;;;5065226;28;20458;-74
2021/11/04 01:45:17;;;;;;;2.57;2.37;;;8.90;99.90;;;;;;5067464;28;20309;-74
2021/11/04 01:47:46;;;;;;;3.20;2.40;;;8.90;99.90;;;;;;5067427;28;20529;-73
2021/11/04 01:50:13;;;;;;;2.43;2.20;;;8.80;99.90;;;;;;5067049;28;20715;-74
2021/11/04 01:52:39;;;;;;;2.70;2.50;;;8.80;99.90;;;;;;5048868;28;20461;-74
2021/11/04 01:55:05;;;;;;;3.50;2.67;;;8.80;99.90;;;;;;5067007;28;20466;-75
2021/11/04 01:57:31;;;;;;;2.43;2.23;;;8.80;99.90;;;;;;5046037;28;20203;-74
2021/11/04 01:59:57;;;;;;;3.23;2.40;;;8.80;99.90;;;;;;5048672;28;20467;-72
2021/11/04 02:02:27;;;;;;;4.17;2.60;;;8.80;99.90;;;;;;5066906;28;20481;-74
2021/11/04 02:05:05;;;;;;;3.13;2.60;;;8.80;99.90;;;;;;5065836;28;20692;-74
2021/11/04 02:07:53;;;;;;;3.60;2.60;;;8.80;99.90;;;;;;5065917;28;20456;-73
2021/11/04 02:10:30;;;;;;;3.10;2.27;;;8.70;99.90;;;;;;5059901;28;20510;-74
2021/11/04 02:13:05;;;;;;;3.23;2.43;;;8.80;99.90;;;;;;5066230;28;20527;-74
2021/11/04 02:15:36;;;;;;;2.50;2.30;;;8.80;99.90;;;;;;5065224;28;20483;-73
2021/11/04 02:18:07;;;;;;;3.20;2.90;;;8.80;99.90;;;;;;5065997;28;20942;-74
2021/11/04 02:21:00;;;;;;;2.90;2.47;;;8.80;99.90;;;;;;5059957;28;20473;-73
2021/11/04 02:23:41;;;;;;;3.93;2.33;;;8.80;99.90;;;;;;5066586;28;20844;-74
2021/11/04 02:26:08;;;;;;;4.57;2.80;;;8.80;99.90;;;;;;5066175;28;20473;-74
2021/11/04 02:28:38;;;;;;;5.00;3.10;;;8.80;99.90;;;;;;5065943;28;20449;-73
2021/11/04 02:31:06;;;;;;;3.70;2.67;;;8.80;99.90;;;;;;5049610;28;20471;-74
2021/11/04 02:33:32;;;;;;;4.10;3.10;;;8.70;99.90;;;;;;5064823;28;20979;-73
2021/11/04 02:35:59;;;;;;;4.23;3.17;;;8.70;99.90;;;;;;5065758;28;20461;-74
2021/11/04 02:38:31;;;;;;;6.00;3.50;;;8.70;99.90;;;;;;5066452;28;20231;-74
2021/11/04 02:41:01;;;;;;;6.07;3.57;;;8.70;99.90;;;;;;5083165;28;20468;-74
2021/11/04 02:43:30;;;;;;;3.83;3.23;;;8.80;99.90;;;;;;5066596;28;20489;-74
2021/11/04 02:45:56;;;;;;;5.07;3.40;;;8.80;99.90;;;;;;5066057;28;20555;-74
2021/11/04 02:48:22;;;;;;;4.03;3.50;;;8.80;99.90;;;;;;5066962;28;20461;-73
2021/11/04 02:50:51;;;;;;;3.80;3.40;;;8.80;99.90;;;;;;5047924;28;20492;-74
2021/11/04 02:53:19;;;;;;;5.27;3.63;;;8.80;99.90;;;;;;5066228;28;20453;-74
2021/11/04 02:55:45;;;;;;;4.33;3.03;;;8.80;99.90;;;;;;5064331;28;20537;-74
2021/11/04 02:58:12;;;;;;;4.47;3.27;;;8.70;99.90;;;;;;5065565;28;20556;-74
2021/11/04 03:00:42;;;;;;;4.27;3.27;;;8.70;99.90;;;;;;5050727;28;20330;-74
2021/11/04 03:03:08;;;;;;;3.50;2.73;;;8.70;99.90;;;;;;5071686;28;20461;-73
2021/11/04 03:05:34;;;;;;;5.27;3.43;;;8.60;99.90;;;;;;5068929;28;20491;-74
2021/11/04 03:08:00;;;;;;;5.33;3.77;;;8.60;99.90;;;;;;5070554;28;20222;-73
2021/11/04 03:10:25;;;;;;;4.03;2.80;;;8.70;99.90;;;;;;5070526;28;20469;-74
2021/11/04 03:12:54;;;;;;;4.53;3.17;;;8.60;99.90;;;;;;5085904;28;20227;-74
2021/11/04 03:15:22;;;;;;;4.50;3.20;;;8.60;99.90;;;;;;5069428;28;20661;-74
2021/11/04 03:17:49;;;;;;;5.37;3.70;;;8.60;99.90;;;;;;5069068;28;20978;-73
2021/11/04 03:20:17;;;;;;;5.10;3.63;;;8.60;99.90;;;;;;5070449;28;20986;-74
2021/11/04 03:22:43;;;;;;;3.30;2.70;;;8.60;99.90;;;;;;5084985;28;20473;-75
2021/11/04 03:25:10;;;;;;;5.20;2.83;;;8.60;99.90;;;;;;5070271;28;20881;-74
2021/11/04 03:27:41;;;;;;;5.77;3.77;;;8.60;99.90;;;;;;5069195;28;20461;-73
2021/11/04 03:30:09;;;;;;;6.17;4.43;;;8.50;99.90;;;;;;5070306;28;20477;-75
2021/11/04 03:32:37;;;;;;;5.60;3.27;;;8.50;99.90;;;;;;5067685;28;20548;-75
2021/11/04 03:35:05;;;;;;;5.73;3.90;;;8.50;99.90;;;;;;5070061;28;20461;-75
2021/11/04 03:37:32;;;;;;;7.83;4.20;;;8.50;99.90;;;;;;5068270;28;20805;-73
2021/11/04 03:39:58;;;;;;;5.57;3.23;;;8.50;99.90;;;;;;5069921;28;20473;-73
2021/11/04 03:42:25;;;;;;;6.03;4.07;;;8.50;99.90;;;;;;5068804;28;20527;-75
2021/11/04 03:44:53;;;;;;;5.80;3.90;;;8.50;99.90;;;;;;5051181;28;20549;-73
2021/11/04 03:47:20;;;;;;;6.40;3.93;;;8.50;99.90;;;;;;5069860;28;20506;-74
2021/11/04 03:49:50;;;;;;;5.70;3.40;;;8.50;99.90;;;;;;5068325;28;20620;-73
2021/11/04 03:52:17;;;;;;;5.40;3.83;;;8.50;99.90;;;;;;5049639;28;20450;-74
2021/11/04 03:54:43;;;;;;;7.30;3.20;;;8.50;99.90;;;;;;5048468;28;20454;-74
2021/11/04 03:57:10;;;;;;;4.10;3.07;;;8.50;99.90;;;;;;5049861;28;20548;-74
2021/11/04 03:59:36;;;;;;;4.50;3.40;;;8.50;99.90;;;;;;5049067;28;20478;-74
2021/11/04 04:02:02;;;;;;;4.50;3.00;;;8.50;99.90;;;;;;5069367;28;20462;-74
2021/11/04 04:04:28;;;;;;;4.27;2.43;;;8.50;99.90;;;;;;5052680;28;20224;-74
2021/11/04 04:06:54;;;;;;;5.40;3.20;;;8.50;99.90;;;;;;5067291;28;20446;-74
2021/11/04 04:09:22;;;;;;;6.60;4.20;;;8.50;99.90;;;;;;5069516;28;20215;-73
2021/11/04 04:11:48;;;;;;;5.97;3.30;;;8.50;99.90;;;;;;5065916;28;20471;-75
2021/11/04 04:14:14;;;;;;;4.17;3.60;;;8.50;99.90;;;;;;5068917;28;20468;-74
2021/11/04 04:16:40;;;;;;;5.10;3.33;;;8.50;99.90;;;;;;5068130;28;20453;-74
2021/11/04 04:19:05;;;;;;;6.57;3.83;;;8.50;99.90;;;;;;5052617;28;20432;-75
2021/11/04 04:21:31;;;;;;;5.70;3.40;;;8.50;99.90;;;;;;5068025;28;20739;-74
2021/11/04 04:23:57;;;;;;;4.63;3.60;;;8.50;99.90;;;;;;5068181;28;20219;-74
2021/11/04 04:26:22;;;;;;;5.40;3.43;;;8.50;99.90;;;;;;5068789;28;20268;-74
2021/11/04 04:28:48;;;;;;;5.23;3.83;;;8.40;99.90;;;;;;5067612;28;20688;-73
2021/11/04 04:31:14;;;;;;;7.30;3.70;;;8.50;99.90;;;;;;5069596;28;20207;-74
2021/11/04 04:33:39;;;;;;;4.80;3.53;;;8.50;99.90;;;;;;5050627;28;20228;-74
2021/11/04 04:36:05;;;;;;;5.60;4.20;;;8.40;99.90;;;;;;5068281;28;20313;-74
2021/11/04 04:38:31;;;;;;;6.47;3.80;;;8.40;99.90;;;;;;5067346;28;20242;-74
2021/11/04 04:40:56;;;;;;;8.27;5.10;;;8.40;99.90;;;;;;5068306;28;20231;-75
2021/11/04 04:43:22;;;;;;;4.93;3.73;;;8.40;99.90;;;;;;5068663;28;20214;-74
2021/11/04 04:45:48;;;;;;;8.13;4.50;;;8.40;99.90;;;;;;5067338;28;20751;-73
2021/11/04 04:48:14;;;;;;;8.33;4.20;;;8.40;99.90;;;;;;5068380;28;20540;-74
2021/11/04 04:50:41;;;;;;;5.60;3.87;;;8.40;99.90;;;;;;5067088;28;20219;-74
2021/11/04 04:53:08;;;;;;;4.90;3.80;;;8.40;99.90;;;;;;5068317;28;20272;-74
2021/11/04 04:55:34;;;;;;;6.73;5.33;;;8.40;99.90;;;;;;5067343;28;20465;-74
2021/11/04 04:58:00;;;;;;;9.57;5.73;;;8.40;99.90;;;;;;5068073;28;20457;-74
2021/11/04 05:00:26;;;;;;;7.63;5.23;;;8.40;99.90;;;;;;5068299;28;20480;-74
2021/11/04 05:02:52;;;;;;;8.80;6.17;;;8.40;99.90;;;;;;5066777;28;20216;-74
2021/11/04 05:05:18;;;;;;;7.60;4.97;;;8.40;99.90;;;;;;5067963;28;20544;-74
2021/11/04 05:07:44;;;;;;;12.60;6.47;;;8.40;99.90;;;;;;5066879;28;20529;-74
2021/11/04 05:10:11;;;;;;;7.43;5.13;;;8.40;99.90;;;;;;5068215;28;20692;-74
2021/11/04 05:12:37;;;;;;;7.10;5.00;;;8.40;99.90;;;;;;5066394;28;20465;-73
2021/11/04 05:15:05;;;;;;;13.73;6.27;;;8.30;99.90;;;;;;5085253;28;20454;-74
2021/11/04 05:17:31;;;;;;;12.77;6.40;;;8.30;99.90;;;;;;5066898;28;21027;-74
2021/11/04 05:19:56;;;;;;;11.10;5.80;;;8.30;99.90;;;;;;5050940;28;20496;-73
2021/11/04 05:22:22;;;;;;;8.73;5.50;;;8.30;99.90;;;;;;5067662;28;20214;-74
2021/11/04 05:24:48;;;;;;;10.40;7.10;;;8.30;99.90;;;;;;5066512;28;20227;-74
2021/11/04 05:27:14;;;;;;;12.00;7.60;;;8.30;99.90;;;;;;5067304;28;20215;-74
2021/11/04 05:29:40;;;;;;;11.60;6.77;;;8.30;99.90;;;;;;5068503;28;20457;-74
2021/11/04 05:32:07;;;;;;;14.07;8.07;;;8.30;99.90;;;;;;5067201;28;20258;-74
2021/11/04 05:34:37;;;;;;;17.10;10.10;;;8.30;99.90;;;;;;5066086;28;20216;-74
2021/11/04 05:37:04;;;;;;;17.80;9.57;;;8.30;99.90;;;;;;5051255;28;20450;-73
2021/11/04 05:39:30;;;;;;;13.83;8.50;;;8.30;99.90;;;;;;5055738;28;20484;-74
2021/11/04 05:41:57;;;;;;;17.77;8.77;;;8.30;99.90;;;;;;5057761;28;20464;-74
2021/11/04 05:44:22;;;;;;;25.13;11.13;;;8.30;99.90;;;;;;5066594;28;20450;-74
2021/11/04 05:46:48;;;;;;;26.33;12.30;;;8.30;99.90;;;;;;5045627;28;20453;-73
2021/11/04 05:49:14;;;;;;;25.50;13.27;;;8.30;99.90;;;;;;5083872;28;20290;-74
2021/11/04 05:51:40;;;;;;;31.43;15.33;;;8.30;99.90;;;;;;5082369;28;20590;-73
2021/11/04 05:54:05;;;;;;;36.33;18.63;;;8.30;99.90;;;;;;5067752;28;20285;-73
2021/11/04 05:56:31;;;;;;;36.10;17.47;;;8.30;99.90;;;;;;5062064;28;20203;-74
2021/11/04 05:58:56;;;;;;;29.50;17.77;;;8.30;99.90;;;;;;5065526;28;20214;-74
2021/11/04 06:01:27;;;;;;;35.40;18.57;;;8.30;99.90;;;;;;5043424;28;20238;-74
2021/11/04 06:03:53;;;;;;;33.20;16.90;;;8.30;99.90;;;;;;5045398;28;20310;-73
2021/11/04 06:06:18;;;;;;;21.43;12.17;;;8.30;99.90;;;;;;5066765;28;20671;-74
2021/11/04 06:08:44;;;;;;;21.23;11.90;;;8.30;99.90;;;;;;5065768;28;20450;-74
2021/11/04 06:11:10;;;;;;;20.23;10.37;;;8.30;99.90;;;;;;5047390;28;20243;-74
2021/11/04 06:13:35;;;;;;;18.13;11.50;;;8.30;99.90;;;;;;5062504;28;20216;-74
2021/11/04 06:16:01;;;;;;;20.60;11.13;;;8.30;99.90;;;;;;5066837;28;20219;-74
2021/11/04 06:18:27;;;;;;;23.90;11.73;;;8.30;99.90;;;;;;5050971;28;20218;-74
2021/11/04 06:20:52;;;;;;;23.20;12.27;;;8.30;99.90;;;;;;5082511;28;20223;-73
2021/11/04 06:23:18;;;;;;;24.93;11.90;;;8.30;99.90;;;;;;5083505;28;20214;-75
2021/11/04 06:25:44;;;;;;;23.97;11.70;;;8.20;99.90;;;;;;5065299;28;20681;-74
2021/11/04 06:28:09;;;;;;;24.20;13.30;;;8.30;99.90;;;;;;5067328;28;20257;-74
2021/11/04 06:30:35;;;;;;;29.97;14.97;;;8.20;99.90;;;;;;5048903;28;20305;-74
2021/11/04 06:33:01;;;;;;;28.70;13.80;;;8.20;99.90;;;;;;5066733;28;20215;-74
2021/11/04 06:35:27;;;;;;;28.70;12.43;;;8.20;99.90;;;;;;5067397;28;20226;-74
2021/11/04 06:37:53;;;;;;;27.37;13.23;;;8.20;99.90;;;;;;5065859;28;20211;-74
2021/11/04 06:40:24;;;;;;;25.67;13.43;;;8.20;99.90;;;;;;5067003;28;20835;-74
2021/11/04 06:42:50;;;;;;;25.57;12.97;;;8.20;99.90;;;;;;5048627;28;20223;-74
2021/11/04 06:45:16;;;;;;;20.90;12.13;;;8.20;99.90;;;;;;5066577;28;20543;-74
2021/11/04 06:47:51;;;;;;;26.60;13.80;;;8.20;99.90;;;;;;5048771;28;20242;-73
2021/11/04 06:50:30;;;;;;;27.53;13.27;;;8.20;99.90;;;;;;5049852;28;20489;-74
2021/11/04 06:53:04;;;;;;;29.50;13.63;;;8.20;99.90;;;;;;5083126;28;20514;-74
2021/11/04 06:55:32;;;;;;;35.20;15.40;;;8.20;99.90;;;;;;5083395;28;20469;-74
2021/11/04 06:58:03;;;;;;;29.90;15.10;;;8.20;99.90;;;;;;5066741;28;20515;-72
2021/11/04 07:00:32;;;;;;;30.70;14.13;;;8.20;99.90;;;;;;5066619;28;20473;-74
2021/11/04 07:03:17;;;;;;;26.10;14.20;;;8.20;99.90;;;;;;5047275;28;20455;-74
2021/11/04 07:05:44;;;;;;;32.23;14.77;;;8.20;99.90;;;;;;5081890;28;20465;-74
2021/11/04 07:08:20;;;;;;;23.90;12.37;;;8.20;99.90;;;;;;5066589;28;20488;-74
2021/11/04 07:10:47;;;;;;;29.30;12.87;;;8.20;99.90;;;;;;5061635;28;20467;-73
2021/11/04 07:13:16;;;;;;;28.07;12.70;;;8.20;99.90;;;;;;5041287;28;20468;-74
2021/11/04 07:15:42;;;;;;;30.27;14.47;;;8.20;99.90;;;;;;5082001;28;20484;-74
2021/11/04 07:18:10;;;;;;;20.70;11.33;;;8.20;99.90;;;;;;5049968;28;20454;-73
2021/11/04 07:20:38;;;;;;;30.00;13.40;;;8.20;99.90;;;;;;5047873;28;20492;-73
2021/11/04 07:23:11;;;;;;;24.30;11.53;;;8.20;99.90;;;;;;5066334;28;20596;-74
2021/11/04 07:25:42;;;;;;;22.50;11.80;;;8.20;99.90;;;;;;5082284;28;20461;-74
2021/11/04 07:28:14;;;;;;;26.97;12.63;;;8.20;99.90;;;;;;5050180;28;20556;-74
2021/11/04 07:30:40;;;;;;;29.53;12.57;;;8.20;99.90;;;;;;5048189;28;20545;-74
2021/11/04 07:33:08;;;;;;;19.40;11.57;;;8.20;99.90;;;;;;5082448;28;20461;-74
2021/11/04 07:35:41;;;;;;;23.60;12.60;;;8.20;99.90;;;;;;5064710;28;21055;-74
2021/11/04 07:38:12;;;;;;;26.33;12.43;;;8.10;99.90;;;;;;5049547;28;20462;-74
2021/11/04 07:40:38;;;;;;;28.20;13.80;;;8.10;99.90;;;;;;5047964;28;20527;-74
2021/11/04 07:43:04;;;;;;;28.17;14.17;;;8.10;99.90;;;;;;5082716;28;20462;-72
2021/11/04 07:45:31;;;;;;;24.20;12.90;;;8.10;99.90;;;;;;5066128;28;20461;-73
2021/11/04 07:47:57;;;;;;;29.70;13.63;;;8.20;99.90;;;;;;5069397;28;20515;-73
2021/11/04 07:50:25;;;;;;;25.33;12.80;;;8.10;99.90;;;;;;5052717;28;20457;-73
2021/11/04 07:52:52;;;;;;;24.60;12.10;;;8.10;99.90;;;;;;5067255;28;20453;-73
2021/11/04 07:55:18;;;;;;;29.40;14.43;;;8.10;99.90;;;;;;5069111;28;20552;-74
2021/11/04 07:57:45;;;;;;;27.50;13.40;;;8.10;99.90;;;;;;5051616;28;20468;-74
2021/11/04 08:00:16;;;;;;;27.90;13.60;;;8.10;99.90;;;;;;5086351;28;20524;-74
2021/11/04 08:02:42;;;;;;;30.63;14.60;;;8.10;99.90;;;;;;5066999;28;20863;-74
2021/11/04 08:05:18;;;;;;;29.80;13.93;;;8.10;99.90;;;;;;5069077;28;20456;-73
2021/11/04 08:07:44;;;;;;;24.57;12.53;;;8.10;99.90;;;;;;5066834;28;20687;-74
2021/11/04 08:10:12;;;;;;;27.37;12.70;;;8.10;99.90;;;;;;5052083;28;20499;-74
2021/11/04 08:12:37;;;;;;;26.77;12.57;;;8.10;99.90;;;;;;5084186;28;20702;-74
2021/11/04 08:15:05;;;;;;;22.97;12.70;;;8.10;99.90;;;;;;5069506;28;20599;-74
2021/11/04 08:17:31;;;;;;;23.93;11.50;;;8.10;99.90;;;;;;5066749;28;20211;-73
2021/11/04 08:19:57;;;;;;;20.20;11.20;;;8.10;99.90;;;;;;5069164;28;20481;-74
2021/11/04 08:22:23;;;;;;;23.73;13.33;;;8.10;99.90;;;;;;5069022;28;20461;-73
2021/11/04 08:24:48;;;;;;;25.17;13.60;;;8.10;99.90;;;;;;5050304;28;20462;-73
2021/11/04 08:27:15;;;;;;;22.73;12.03;;;8.10;99.90;;;;;;5086043;28;20437;-74
2021/11/04 08:29:41;;;;;;;21.07;11.20;;;8.10;99.90;;;;;;5084854;28;20283;-74
2021/11/04 08:32:08;;;;;;;16.87;10.37;;;8.10;99.90;;;;;;5068810;28;20529;-72
2021/11/04 08:34:34;;;;;;;23.40;12.03;;;8.10;99.90;;;;;;5068199;28;20215;-74
2021/11/04 08:37:00;;;;;;;22.83;11.63;;;8.10;99.90;;;;;;5068977;28;20456;-74
2021/11/04 08:39:26;;;;;;;21.00;11.10;;;8.10;99.90;;;;;;5069168;28;20229;-74
2021/11/04 08:41:52;;;;;;;26.30;11.80;;;8.10;99.90;;;;;;5067350;28;20303;-75
2021/11/04 08:44:18;;;;;;;20.90;11.57;;;8.10;99.90;;;;;;5052084;28;20551;-73
2021/11/04 08:46:44;;;;;;;18.37;10.20;;;8.10;99.90;;;;;;5052537;28;20293;-74
2021/11/04 08:49:09;;;;;;;20.17;10.70;;;8.10;99.90;;;;;;5068031;28;20549;-74
2021/11/04 08:51:35;;;;;;;20.93;11.57;;;8.20;99.90;;;;;;5067145;28;20219;-73
2021/11/04 08:54:01;;;;;;;23.10;11.17;;;8.20;99.90;;;;;;5065235;28;20227;-75
2021/11/04 08:56:27;;;;;;;19.97;10.83;;;8.10;99.90;;;;;;5065593;28;20219;-73
2021/11/04 08:58:53;;;;;;;21.10;12.53;;;8.10;99.90;;;;;;5050081;28;20711;-73
2021/11/04 09:01:19;;;;;;;20.00;9.47;;;8.20;99.90;;;;;;5084026;28;20250;-73
2021/11/04 09:03:46;;;;;;;21.70;9.77;;;8.20;99.90;;;;;;5049595;28;20708;-73
2021/11/04 09:06:11;;;;;;;19.97;10.50;;;8.10;99.90;;;;;;5067674;28;20488;-73
2021/11/04 09:08:37;;;;;;;17.70;9.17;;;8.20;99.90;;;;;;5066252;28;20218;-73
2021/11/04 09:11:03;;;;;;;16.33;9.67;;;8.20;99.90;;;;;;5051436;28;20219;-71
2021/11/04 09:13:28;;;;;;;16.40;9.63;;;8.20;99.90;;;;;;5085170;28;20223;-74
2021/11/04 09:15:54;;;;;;;16.90;9.20;;;8.20;99.90;;;;;;5067051;28;20759;-73
2021/11/04 09:18:21;;;;;;;21.97;10.20;;;8.20;99.90;;;;;;5062088;28;20211;-74
2021/11/04 09:20:46;;;;;;;20.30;9.97;;;8.20;99.90;;;;;;5066873;28;20585;-74
2021/11/04 09:23:12;;;;;;;19.20;9.10;;;8.20;99.90;;;;;;5051270;28;20458;-74
2021/11/04 09:25:38;;;;;;;14.80;9.17;;;8.20;99.90;;;;;;5066203;28;20231;-74
2021/11/04 09:28:05;;;;;;;16.40;8.37;;;8.20;99.90;;;;;;5051714;28;20322;-73
2021/11/04 09:30:30;;;;;;;11.77;6.83;;;8.20;99.90;;;;;;5067389;28;20548;-74
2021/11/04 09:32:56;;;;;;;12.60;7.93;;;8.30;99.90;;;;;;5067520;28;20219;-75
2021/11/04 09:35:23;;;;;;;15.97;8.30;;;8.30;99.90;;;;;;5049856;28;20712;-74
2021/11/04 09:37:49;;;;;;;12.53;7.70;;;8.30;99.90;;;;;;5065672;28;20482;-74
2021/11/04 09:40:17;;;;;;;13.10;8.10;;;8.20;99.90;;;;;;5082247;28;20501;-74
2021/11/04 09:42:47;;;;;;;17.87;8.20;;;8.20;99.90;;;;;;5049387;28;20219;-75
2021/11/04 09:45:13;;;;;;;14.80;8.00;;;8.20;99.90;;;;;;5067468;28;20584;-74
2021/11/04 09:47:39;;;;;;;13.13;7.60;;;8.20;99.90;;;;;;5064483;28;20850;-73
2021/11/04 09:50:14;;;;;;;14.60;7.87;;;8.20;99.90;;;;;;5065132;28;20446;-73
2021/11/04 09:52:41;;;;;;;15.87;8.63;;;8.20;99.90;;;;;;5063346;28;20471;-74
2021/11/04 09:55:17;;;;;;;18.33;8.80;;;8.20;99.90;;;;;;5049560;28;20465;-74
2021/11/04 09:57:44;;;;;;;17.07;10.57;;;8.20;99.90;;;;;;5065947;28;20522;-74
2021/11/04 10:00:10;;;;;;;28.60;14.00;;;8.20;99.90;;;;;;5067316;28;20473;-74
2021/11/04 10:02:38;;;;;;;39.73;20.30;;;8.20;99.90;;;;;;5065902;28;20457;-74
2021/11/04 10:05:09;;;;;;;85.43;42.73;;;8.20;99.90;;;;;;5067354;28;20906;-73
2021/11/04 10:07:42;;;;;;;39.50;18.23;;;8.20;99.90;;;;;;5048891;28;20472;-74
2021/11/04 10:10:09;;;;;;;22.63;12.90;;;8.30;99.90;;;;;;5083053;28;20453;-74
2021/11/04 10:12:35;;;;;;;23.33;10.87;;;8.30;99.90;;;;;;5065401;28;20540;-75
2021/11/04 10:15:14;;;;;;;23.90;10.13;;;8.30;99.90;;;;;;5068333;28;20458;-73
2021/11/04 10:17:40;;;;;;;16.30;8.33;;;8.30;99.90;;;;;;5065590;28;20265;-74
2021/11/04 10:20:27;;;;;;;17.97;9.23;;;8.30;99.90;;;;;;5067152;28;20473;-74
2021/11/04 10:23:03;;;;;;;22.37;12.47;;;8.30;99.90;;;;;;5064350;28;20994;-73
2021/11/04 10:25:29;;;;;;;22.20;11.70;;;8.40;99.90;;;;;;5084387;28;20496;-74
2021/11/04 10:27:55;;;;;;;17.10;10.27;;;8.40;99.90;;;;;;5065889;28;20515;-74
2021/11/04 10:30:41;;;;;;;15.63;9.17;;;8.40;99.90;;;;;;5049259;28;20951;-74
2021/11/04 10:33:28;;;;;;;17.27;12.87;;;8.40;99.90;;;;;;5066699;28;20591;-75
2021/11/04 10:35:56;;;;;;;19.80;13.43;;;8.40;99.90;;;;;;5079840;28;20454;-73
2021/11/04 10:38:31;;;;;;;13.80;8.13;;;8.40;99.90;;;;;;5068431;28;20461;-74
2021/11/04 10:40:57;;;;;;;10.70;6.60;;;8.50;99.90;;;;;;5066594;28;20475;-74
2021/11/04 10:43:22;;;;;;;8.67;6.20;;;8.50;99.90;;;;;;5066061;28;20473;-74
2021/11/04 10:45:59;;;;;;;10.67;5.23;;;8.50;99.90;;;;;;5065445;28;20215;-73
2021/11/04 10:48:25;;;;;;;7.17;5.20;;;8.40;99.90;;;;;;5066860;28;20229;-74
2021/11/04 10:50:51;;;;;;;7.50;5.10;;;8.40;99.90;;;;;;5065357;28;20548;-73
2021/11/04 10:53:21;;;;;;;7.13;5.77;;;8.50;99.90;;;;;;5049834;28;20453;-74
2021/11/04 10:56:11;;;;;;;9.50;5.63;;;8.50;99.90;;;;;;5065219;28;20231;-74
2021/11/04 10:58:37;;;;;;;8.87;5.47;;;8.50;99.90;;;;;;5064362;28;20556;-74
2021/11/04 11:01:03;;;;;;;9.20;5.70;;;8.50;99.90;;;;;;5065861;28;20548;-73
2021/11/04 11:03:30;;;;;;;5.53;4.50;;;8.50;99.90;;;;;;5067730;28;20323;-74
2021/11/04 11:06:05;;;;;;;6.87;4.97;;;8.50;99.90;;;;;;5066329;28;20461;-73
2021/11/04 11:08:31;;;;;;;9.13;5.93;;;8.60;99.90;;;;;;5065895;28;20460;-74
2021/11/04 11:10:57;;;;;;;7.87;5.43;;;8.50;99.90;;;;;;5066395;28;20515;-74
2021/11/04 11:13:23;;;;;;;8.77;5.40;;;8.60;99.90;;;;;;5066106;28;20485;-74
2021/11/04 11:15:54;;;;;;;9.90;5.03;;;8.60;99.90;;;;;;5061691;28;20782;-74
2021/11/04 11:18:25;;;;;;;9.83;5.00;;;8.60;99.90;;;;;;5066850;28;20468;-74
2021/11/04 11:20:51;;;;;;;8.43;6.03;;;8.60;99.90;;;;;;5066141;28;20496;-74
2021/11/04 11:23:23;;;;;;;10.93;5.47;;;8.60;99.90;;;;;;5070008;28;20468;-74
2021/11/04 11:25:52;;;;;;;8.10;5.40;;;8.60;99.90;;;;;;5069027;28;21065;-74
2021/11/04 11:28:22;;;;;;;16.30;8.83;;;8.60;99.90;;;;;;5069748;28;20481;-74
2021/11/04 11:31:13;;;;;;;14.80;9.27;;;8.60;99.90;;;;;;5068704;28;20993;-74
2021/11/04 11:34:18;;;;;;;24.47;14.27;;;8.60;99.90;;;;;;5049823;28;20466;-74
2021/11/04 11:37:07;;;;;;;15.27;10.27;;;8.60;99.90;;;;;;5054175;28;20464;-74
2021/11/04 11:39:41;;;;;;;11.60;8.40;;;8.60;99.90;;;;;;5048870;28;20485;-74
2021/11/04 11:42:09;;;;;;;14.90;8.80;;;8.60;99.90;;;;;;5049949;28;20830;-74
2021/11/04 11:44:46;;;;;;;16.27;8.47;;;8.60;99.90;;;;;;5064668;28;20487;-74
2021/11/04 11:47:17;;;;;;;12.23;7.60;;;8.70;99.90;;;;;;5069367;28;20471;-74
2021/11/04 11:49:45;;;;;;;11.23;6.67;;;8.70;99.90;;;;;;5068417;28;20598;-74
2021/11/04 11:52:46;;;;;;;11.03;5.67;;;8.70;99.90;;;;;;5069582;28;20461;-73
2021/11/04 11:55:15;;;;;;;7.43;4.57;;;8.70;99.90;;;;;;5069768;28;20469;-74
2021/11/04 11:58:12;;;;;;;7.63;4.47;;;8.70;99.90;;;;;;5064935;28;20867;-73
2021/11/04 12:00:57;;;;;;;6.30;4.33;;;8.70;99.90;;;;;;5063497;28;20465;-73
2021/11/04 12:03:32;;;;;;;12.27;5.30;;;8.70;99.90;;;;;;5068365;28;20492;-73
2021/11/04 12:06:21;;;;;;;7.20;4.60;;;8.70;99.90;;;;;;5068332;28;20536;-74
2021/11/04 12:08:58;;;;;;;9.33;4.80;;;8.70;99.90;;;;;;5041633;28;20468;-74
2021/11/04 12:11:41;;;;;;;10.23;4.80;;;8.70;99.90;;;;;;5086019;28;20465;-74
2021/11/04 12:14:19;;;;;;;6.97;3.90;;;8.70;99.90;;;;;;5069277;28;20467;-74
2021/11/04 12:17:00;;;;;;;5.47;3.53;;;8.60;99.90;;;;;;5069531;28;20481;-74
2021/11/04 12:19:41;;;;;;;7.40;4.73;;;8.60;99.90;;;;;;5069392;28;20844;-74
2021/11/04 12:22:12;;;;;;;8.43;5.90;;;8.60;99.90;;;;;;5067327;28;20451;-72
2021/11/04 12:24:56;;;;;;;18.00;11.50;;;8.60;99.90;;;;;;5050523;28;20974;-74
2021/11/04 12:27:23;;;;;;;49.93;24.17;;;8.60;99.90;;;;;;5052047;28;20469;-73
2021/11/04 12:29:51;;;;;;;24.20;13.10;;;8.60;99.90;;;;;;5084600;28;20457;-74
2021/11/04 12:32:18;;;;;;;19.67;11.90;;;8.60;99.90;;;;;;5067336;28;20473;-73
2021/11/04 12:34:53;;;;;;;17.40;10.90;;;8.60;99.90;;;;;;5068617;28;20468;-73
2021/11/04 12:37:19;;;;;;;25.37;12.77;;;8.60;99.90;;;;;;5070095;28;20540;-74
2021/11/04 12:39:46;;;;;;;18.60;11.37;;;8.70;99.90;;;;;;5067589;28;21077;-75
2021/11/04 12:42:16;;;;;;;15.40;8.20;;;8.70;99.90;;;;;;5052016;28;20250;-74
2021/11/04 12:44:42;;;;;;;12.80;7.00;;;8.70;99.90;;;;;;5054406;28;20531;-74
2021/11/04 12:47:07;;;;;;;23.93;13.37;;;8.70;99.90;;;;;;5068903;28;20449;-73
2021/11/04 12:49:40;;;;;;;13.00;9.13;;;8.70;99.90;;;;;;5067696;28;20211;-73
2021/11/04 12:52:08;;;;;;;11.73;7.90;;;8.70;99.90;;;;;;5051574;28;20294;-73